sensor_id;sensor_type;location;lat;lon;timestamp;P1;durP1;ratioP1;P2;durP2;ratioP2
74473;SDS011;62922;-6.168;106.796;2022-12-13T00:01:43;21.15;;;6.32;;
74473;SDS011;62922;-6.168;106.796;2022-12-13T00:04:13;23.25;;;6.88;;
74473;SDS011;62922;-6.168;106.796;2022-12-13T00:06:41;19.40;;;6.45;;
74473;SDS011;62922;-6.168;106.796;2022-12-13T00:09:09;24.30;;;6.55;;
74473;SDS011;62922;-6.168;106.796;2022-12-13T00:11:38;22.95;;;6.38;;
74473;SDS011;62922;-6.168;106.796;2022-12-13T00:14:04;20.10;;;7.03;;
74473;SDS011;62922;-6.168;106.796;2022-12-13T00:16:30;27.25;;;7.63;;
74473;SDS011;62922;-6.168;106.796;2022-12-13T00:18:57;28.50;;;8.25;;
74473;SDS011;62922;-6.168;106.796;2022-12-13T00:21:25;26.42;;;7.85;;
74473;SDS011;62922;-6.168;106.796;2022-12-13T00:23:54;20.90;;;7.60;;
74473;SDS011;62922;-6.168;106.796;2022-12-13T00:26:23;29.95;;;8.52;;
74473;SDS011;62922;-6.168;106.796;2022-12-13T00:28:51;23.20;;;8.52;;
74473;SDS011;62922;-6.168;106.796;2022-12-13T00:31:19;25.50;;;8.57;;
74473;SDS011;62922;-6.168;106.796;2022-12-13T00:33:46;28.70;;;9.40;;
74473;SDS011;62922;-6.168;106.796;2022-12-13T00:36:13;25.05;;;8.68;;
74473;SDS011;62922;-6.168;106.796;2022-12-13T00:38:40;23.23;;;9.18;;
74473;SDS011;62922;-6.168;106.796;2022-12-13T00:41:12;25.65;;;8.65;;
74473;SDS011;62922;-6.168;106.796;2022-12-13T00:43:41;27.92;;;8.90;;
74473;SDS011;62922;-6.168;106.796;2022-12-13T00:46:13;26.30;;;9.30;;
74473;SDS011;62922;-6.168;106.796;2022-12-13T00:48:42;26.00;;;9.27;;
74473;SDS011;62922;-6.168;106.796;2022-12-13T00:51:12;25.52;;;9.63;;
74473;SDS011;62922;-6.168;106.796;2022-12-13T00:53:39;23.50;;;8.77;;
74473;SDS011;62922;-6.168;106.796;2022-12-13T00:56:15;22.85;;;8.27;;
74473;SDS011;62922;-6.168;106.796;2022-12-13T00:58:45;23.45;;;8.15;;
74473;SDS011;62922;-6.168;106.796;2022-12-13T01:01:14;25.85;;;8.43;;
74473;SDS011;62922;-6.168;106.796;2022-12-13T01:03:42;21.75;;;8.20;;
74473;SDS011;62922;-6.168;106.796;2022-12-13T01:06:10;25.75;;;7.95;;
74473;SDS011;62922;-6.168;106.796;2022-12-13T01:08:45;21.75;;;7.40;;
74473;SDS011;62922;-6.168;106.796;2022-12-13T01:11:12;28.25;;;8.70;;
74473;SDS011;62922;-6.168;106.796;2022-12-13T01:13:39;23.85;;;8.65;;
74473;SDS011;62922;-6.168;106.796;2022-12-13T01:16:07;27.58;;;8.02;;
74473;SDS011;62922;-6.168;106.796;2022-12-13T01:18:35;23.45;;;7.97;;
74473;SDS011;62922;-6.168;106.796;2022-12-13T01:21:03;23.35;;;8.00;;
74473;SDS011;62922;-6.168;106.796;2022-12-13T01:23:34;23.15;;;7.60;;
74473;SDS011;62922;-6.168;106.796;2022-12-13T01:26:03;23.05;;;8.00;;
74473;SDS011;62922;-6.168;106.796;2022-12-13T01:28:30;24.65;;;8.60;;
74473;SDS011;62922;-6.168;106.796;2022-12-13T01:31:00;21.02;;;8.27;;
74473;SDS011;62922;-6.168;106.796;2022-12-13T01:33:32;24.40;;;9.00;;
74473;SDS011;62922;-6.168;106.796;2022-12-13T01:36:00;22.23;;;8.05;;
74473;SDS011;62922;-6.168;106.796;2022-12-13T01:38:28;22.50;;;8.43;;
74473;SDS011;62922;-6.168;106.796;2022-12-13T01:40:55;24.63;;;8.65;;
74473;SDS011;62922;-6.168;106.796;2022-12-13T01:43:24;23.17;;;8.85;;
74473;SDS011;62922;-6.168;106.796;2022-12-13T01:45:54;27.55;;;9.07;;
74473;SDS011;62922;-6.168;106.796;2022-12-13T01:48:24;26.85;;;9.07;;
74473;SDS011;62922;-6.168;106.796;2022-12-13T01:50:55;27.10;;;8.32;;
74473;SDS011;62922;-6.168;106.796;2022-12-13T01:53:28;21.85;;;8.82;;
74473;SDS011;62922;-6.168;106.796;2022-12-13T01:56:01;25.20;;;8.40;;
74473;SDS011;62922;-6.168;106.796;2022-12-13T01:58:33;26.10;;;8.82;;
74473;SDS011;62922;-6.168;106.796;2022-12-13T02:01:03;25.10;;;8.32;;
74473;SDS011;62922;-6.168;106.796;2022-12-13T02:03:32;25.67;;;8.35;;
74473;SDS011;62922;-6.168;106.796;2022-12-13T02:06:00;23.65;;;8.20;;
74473;SDS011;62922;-6.168;106.796;2022-12-13T02:08:28;19.98;;;6.70;;
74473;SDS011;62922;-6.168;106.796;2022-12-13T02:10:57;23.83;;;7.35;;
74473;SDS011;62922;-6.168;106.796;2022-12-13T02:13:24;20.88;;;6.45;;
74473;SDS011;62922;-6.168;106.796;2022-12-13T02:16:01;22.58;;;7.05;;
74473;SDS011;62922;-6.168;106.796;2022-12-13T02:18:47;18.83;;;6.07;;
74473;SDS011;62922;-6.168;106.796;2022-12-13T02:21:20;21.65;;;6.18;;
74473;SDS011;62922;-6.168;106.796;2022-12-13T02:34:23;18.77;;;4.70;;
74473;SDS011;62922;-6.168;106.796;2022-12-13T02:37:00;17.60;;;4.40;;
74473;SDS011;62922;-6.168;106.796;2022-12-13T02:39:59;21.20;;;4.47;;
74473;SDS011;62922;-6.168;106.796;2022-12-13T02:45:41;20.05;;;4.90;;
74473;SDS011;62922;-6.168;106.796;2022-12-13T02:48:10;20.48;;;5.15;;
74473;SDS011;62922;-6.168;106.796;2022-12-13T02:50:40;23.27;;;5.35;;
74473;SDS011;62922;-6.168;106.796;2022-12-13T02:53:08;19.80;;;4.80;;
74473;SDS011;62922;-6.168;106.796;2022-12-13T02:55:38;18.40;;;4.90;;
74473;SDS011;62922;-6.168;106.796;2022-12-13T02:58:04;20.02;;;5.25;;
74473;SDS011;62922;-6.168;106.796;2022-12-13T03:00:38;21.45;;;5.10;;
74473;SDS011;62922;-6.168;106.796;2022-12-13T03:03:33;19.88;;;5.57;;
74473;SDS011;62922;-6.168;106.796;2022-12-13T03:11:52;16.67;;;4.93;;
74473;SDS011;62922;-6.168;106.796;2022-12-13T03:17:41;14.57;;;4.80;;
74473;SDS011;62922;-6.168;106.796;2022-12-13T03:20:14;20.75;;;5.03;;
74473;SDS011;62922;-6.168;106.796;2022-12-13T03:22:43;18.20;;;5.07;;
74473;SDS011;62922;-6.168;106.796;2022-12-13T03:25:09;22.13;;;5.35;;
74473;SDS011;62922;-6.168;106.796;2022-12-13T03:27:36;22.05;;;5.22;;
74473;SDS011;62922;-6.168;106.796;2022-12-13T03:30:02;18.38;;;5.18;;
74473;SDS011;62922;-6.168;106.796;2022-12-13T03:32:31;19.30;;;5.25;;
74473;SDS011;62922;-6.168;106.796;2022-12-13T03:34:58;23.15;;;5.63;;
74473;SDS011;62922;-6.168;106.796;2022-12-13T03:37:24;16.58;;;5.30;;
74473;SDS011;62922;-6.168;106.796;2022-12-13T03:39:51;21.92;;;5.30;;
74473;SDS011;62922;-6.168;106.796;2022-12-13T03:42:17;18.95;;;5.25;;
74473;SDS011;62922;-6.168;106.796;2022-12-13T03:44:43;19.40;;;5.10;;
74473;SDS011;62922;-6.168;106.796;2022-12-13T03:47:13;17.77;;;5.20;;
74473;SDS011;62922;-6.168;106.796;2022-12-13T03:49:39;18.67;;;5.05;;
74473;SDS011;62922;-6.168;106.796;2022-12-13T03:52:05;19.23;;;5.07;;
74473;SDS011;62922;-6.168;106.796;2022-12-13T03:54:32;19.08;;;5.18;;
74473;SDS011;62922;-6.168;106.796;2022-12-13T03:56:58;19.95;;;5.25;;
74473;SDS011;62922;-6.168;106.796;2022-12-13T03:59:24;22.48;;;5.03;;
74473;SDS011;62922;-6.168;106.796;2022-12-13T04:01:51;20.50;;;5.25;;
74473;SDS011;62922;-6.168;106.796;2022-12-13T04:04:18;21.00;;;5.22;;
74473;SDS011;62922;-6.168;106.796;2022-12-13T04:06:44;15.57;;;4.57;;
74473;SDS011;62922;-6.168;106.796;2022-12-13T04:09:10;16.48;;;4.50;;
74473;SDS011;62922;-6.168;106.796;2022-12-13T04:11:39;13.93;;;4.18;;
74473;SDS011;62922;-6.168;106.796;2022-12-13T04:14:14;15.13;;;4.57;;
74473;SDS011;62922;-6.168;106.796;2022-12-13T04:16:40;18.70;;;4.80;;
74473;SDS011;62922;-6.168;106.796;2022-12-13T04:19:07;16.00;;;4.10;;
74473;SDS011;62922;-6.168;106.796;2022-12-13T04:21:33;14.48;;;4.32;;
74473;SDS011;62922;-6.168;106.796;2022-12-13T04:23:59;15.52;;;4.28;;
74473;SDS011;62922;-6.168;106.796;2022-12-13T04:26:26;19.15;;;4.70;;
74473;SDS011;62922;-6.168;106.796;2022-12-13T04:28:52;15.55;;;3.90;;
74473;SDS011;62922;-6.168;106.796;2022-12-13T04:31:18;18.67;;;4.85;;
74473;SDS011;62922;-6.168;106.796;2022-12-13T04:33:45;16.52;;;4.53;;
74473;SDS011;62922;-6.168;106.796;2022-12-13T04:36:11;14.75;;;4.38;;
74473;SDS011;62922;-6.168;106.796;2022-12-13T04:38:44;14.95;;;4.50;;
74473;SDS011;62922;-6.168;106.796;2022-12-13T04:41:13;16.10;;;4.47;;
74473;SDS011;62922;-6.168;106.796;2022-12-13T04:43:42;15.27;;;4.93;;
74473;SDS011;62922;-6.168;106.796;2022-12-13T04:46:08;13.52;;;4.68;;
74473;SDS011;62922;-6.168;106.796;2022-12-13T04:48:35;16.60;;;4.93;;
74473;SDS011;62922;-6.168;106.796;2022-12-13T04:51:01;15.35;;;4.72;;
74473;SDS011;62922;-6.168;106.796;2022-12-13T04:53:28;16.63;;;5.13;;
74473;SDS011;62922;-6.168;106.796;2022-12-13T04:55:55;14.60;;;4.50;;
74473;SDS011;62922;-6.168;106.796;2022-12-13T04:58:21;14.50;;;4.50;;
74473;SDS011;62922;-6.168;106.796;2022-12-13T05:00:47;15.63;;;4.72;;
74473;SDS011;62922;-6.168;106.796;2022-12-13T05:03:14;14.57;;;4.50;;
74473;SDS011;62922;-6.168;106.796;2022-12-13T05:05:40;14.15;;;4.60;;
74473;SDS011;62922;-6.168;106.796;2022-12-13T05:08:09;17.52;;;5.28;;
74473;SDS011;62922;-6.168;106.796;2022-12-13T05:10:38;19.13;;;5.68;;
74473;SDS011;62922;-6.168;106.796;2022-12-13T05:13:04;18.27;;;5.68;;
74473;SDS011;62922;-6.168;106.796;2022-12-13T05:15:33;18.27;;;5.18;;
74473;SDS011;62922;-6.168;106.796;2022-12-13T05:18:00;20.33;;;5.15;;
74473;SDS011;62922;-6.168;106.796;2022-12-13T05:20:28;19.35;;;4.80;;
74473;SDS011;62922;-6.168;106.796;2022-12-13T05:22:56;15.35;;;4.80;;
74473;SDS011;62922;-6.168;106.796;2022-12-13T05:25:23;14.77;;;4.63;;
74473;SDS011;62922;-6.168;106.796;2022-12-13T05:27:50;17.67;;;5.07;;
74473;SDS011;62922;-6.168;106.796;2022-12-13T05:30:17;18.13;;;5.07;;
74473;SDS011;62922;-6.168;106.796;2022-12-13T05:32:44;20.67;;;4.80;;
74473;SDS011;62922;-6.168;106.796;2022-12-13T05:35:11;21.52;;;5.18;;
74473;SDS011;62922;-6.168;106.796;2022-12-13T05:37:38;14.32;;;4.28;;
74473;SDS011;62922;-6.168;106.796;2022-12-13T05:40:04;14.80;;;4.18;;
74473;SDS011;62922;-6.168;106.796;2022-12-13T05:42:31;14.75;;;3.90;;
74473;SDS011;62922;-6.168;106.796;2022-12-13T05:44:58;17.55;;;4.55;;
74473;SDS011;62922;-6.168;106.796;2022-12-13T05:47:24;17.15;;;4.40;;
74473;SDS011;62922;-6.168;106.796;2022-12-13T05:49:50;16.08;;;4.18;;
74473;SDS011;62922;-6.168;106.796;2022-12-13T05:52:19;16.02;;;4.70;;
74473;SDS011;62922;-6.168;106.796;2022-12-13T05:54:46;17.63;;;5.07;;
74473;SDS011;62922;-6.168;106.796;2022-12-13T05:57:13;17.55;;;5.20;;
74473;SDS011;62922;-6.168;106.796;2022-12-13T05:59:39;20.25;;;5.47;;
74473;SDS011;62922;-6.168;106.796;2022-12-13T06:02:06;16.58;;;4.50;;
74473;SDS011;62922;-6.168;106.796;2022-12-13T06:04:32;16.33;;;5.28;;
74473;SDS011;62922;-6.168;106.796;2022-12-13T06:06:58;19.33;;;5.85;;
74473;SDS011;62922;-6.168;106.796;2022-12-13T06:09:25;19.17;;;5.60;;
74473;SDS011;62922;-6.168;106.796;2022-12-13T06:11:51;18.63;;;6.32;;
74473;SDS011;62922;-6.168;106.796;2022-12-13T06:14:17;17.85;;;6.38;;
74473;SDS011;62922;-6.168;106.796;2022-12-13T06:16:44;21.88;;;6.55;;
74473;SDS011;62922;-6.168;106.796;2022-12-13T06:19:10;19.67;;;7.47;;
74473;SDS011;62922;-6.168;106.796;2022-12-13T06:21:38;25.95;;;8.70;;
74473;SDS011;62922;-6.168;106.796;2022-12-13T06:24:05;23.63;;;9.27;;
74473;SDS011;62922;-6.168;106.796;2022-12-13T06:26:33;24.92;;;9.65;;
74473;SDS011;62922;-6.168;106.796;2022-12-13T06:28:59;21.50;;;9.80;;
74473;SDS011;62922;-6.168;106.796;2022-12-13T06:31:25;18.90;;;8.95;;
74473;SDS011;62922;-6.168;106.796;2022-12-13T06:33:51;21.45;;;9.18;;
74473;SDS011;62922;-6.168;106.796;2022-12-13T06:36:18;25.20;;;9.88;;
74473;SDS011;62922;-6.168;106.796;2022-12-13T06:38:44;27.58;;;10.10;;
74473;SDS011;62922;-6.168;106.796;2022-12-13T06:41:14;22.30;;;10.40;;
74473;SDS011;62922;-6.168;106.796;2022-12-13T06:43:45;25.77;;;10.65;;
74473;SDS011;62922;-6.168;106.796;2022-12-13T06:46:12;27.67;;;9.57;;
74473;SDS011;62922;-6.168;106.796;2022-12-13T06:48:39;25.17;;;9.07;;
74473;SDS011;62922;-6.168;106.796;2022-12-13T06:51:06;21.48;;;8.68;;
74473;SDS011;62922;-6.168;106.796;2022-12-13T06:53:34;20.98;;;6.72;;
74473;SDS011;62922;-6.168;106.796;2022-12-13T06:56:04;21.30;;;6.10;;
74473;SDS011;62922;-6.168;106.796;2022-12-13T06:58:32;20.20;;;6.43;;
74473;SDS011;62922;-6.168;106.796;2022-12-13T07:00:59;20.48;;;5.45;;
74473;SDS011;62922;-6.168;106.796;2022-12-13T07:03:28;17.77;;;5.20;;
74473;SDS011;62922;-6.168;106.796;2022-12-13T07:05:57;15.85;;;5.50;;
74473;SDS011;62922;-6.168;106.796;2022-12-13T07:08:24;18.85;;;5.63;;
74473;SDS011;62922;-6.168;106.796;2022-12-13T07:10:51;18.27;;;5.55;;
74473;SDS011;62922;-6.168;106.796;2022-12-13T07:13:19;17.02;;;4.93;;
74473;SDS011;62922;-6.168;106.796;2022-12-13T07:15:46;17.80;;;5.20;;
74473;SDS011;62922;-6.168;106.796;2022-12-13T07:18:13;17.20;;;5.20;;
74473;SDS011;62922;-6.168;106.796;2022-12-13T07:20:40;18.48;;;5.10;;
74473;SDS011;62922;-6.168;106.796;2022-12-13T07:23:07;16.15;;;4.55;;
74473;SDS011;62922;-6.168;106.796;2022-12-13T07:25:34;17.50;;;4.60;;
74473;SDS011;62922;-6.168;106.796;2022-12-13T07:28:02;15.23;;;4.60;;
74473;SDS011;62922;-6.168;106.796;2022-12-13T07:30:30;13.68;;;4.53;;
74473;SDS011;62922;-6.168;106.796;2022-12-13T07:33:00;17.08;;;4.82;;
74473;SDS011;62922;-6.168;106.796;2022-12-13T07:35:27;15.48;;;4.45;;
74473;SDS011;62922;-6.168;106.796;2022-12-13T07:37:54;18.65;;;4.85;;
74473;SDS011;62922;-6.168;106.796;2022-12-13T07:40:21;17.00;;;4.47;;
74473;SDS011;62922;-6.168;106.796;2022-12-13T07:42:49;19.30;;;5.43;;
74473;SDS011;62922;-6.168;106.796;2022-12-13T07:45:16;17.38;;;5.15;;
74473;SDS011;62922;-6.168;106.796;2022-12-13T07:47:43;18.38;;;5.43;;
74473;SDS011;62922;-6.168;106.796;2022-12-13T07:50:10;24.35;;;6.18;;
74473;SDS011;62922;-6.168;106.796;2022-12-13T07:52:37;21.70;;;5.47;;
74473;SDS011;62922;-6.168;106.796;2022-12-13T07:55:04;19.52;;;5.72;;
74473;SDS011;62922;-6.168;106.796;2022-12-13T07:57:31;19.80;;;5.50;;
74473;SDS011;62922;-6.168;106.796;2022-12-13T07:59:58;17.60;;;5.60;;
74473;SDS011;62922;-6.168;106.796;2022-12-13T08:02:24;16.33;;;5.32;;
74473;SDS011;62922;-6.168;106.796;2022-12-13T08:04:50;16.35;;;5.32;;
74473;SDS011;62922;-6.168;106.796;2022-12-13T08:07:18;19.48;;;5.80;;
74473;SDS011;62922;-6.168;106.796;2022-12-13T08:09:44;16.45;;;5.40;;
74473;SDS011;62922;-6.168;106.796;2022-12-13T08:12:10;17.40;;;5.63;;
74473;SDS011;62922;-6.168;106.796;2022-12-13T08:14:37;17.63;;;5.32;;
74473;SDS011;62922;-6.168;106.796;2022-12-13T08:17:03;17.35;;;5.10;;
74473;SDS011;62922;-6.168;106.796;2022-12-13T08:19:29;18.42;;;5.47;;
74473;SDS011;62922;-6.168;106.796;2022-12-13T08:21:55;16.17;;;4.65;;
74473;SDS011;62922;-6.168;106.796;2022-12-13T08:24:24;15.98;;;4.95;;
74473;SDS011;62922;-6.168;106.796;2022-12-13T08:26:52;16.17;;;4.88;;
74473;SDS011;62922;-6.168;106.796;2022-12-13T08:29:28;16.70;;;4.70;;
74473;SDS011;62922;-6.168;106.796;2022-12-13T08:31:56;20.23;;;5.05;;
74473;SDS011;62922;-6.168;106.796;2022-12-13T08:34:22;15.73;;;4.55;;
74473;SDS011;62922;-6.168;106.796;2022-12-13T08:36:48;16.67;;;4.75;;
74473;SDS011;62922;-6.168;106.796;2022-12-13T08:39:16;19.92;;;4.75;;
74473;SDS011;62922;-6.168;106.796;2022-12-13T08:41:42;15.45;;;4.35;;
74473;SDS011;62922;-6.168;106.796;2022-12-13T08:44:09;16.13;;;4.85;;
74473;SDS011;62922;-6.168;106.796;2022-12-13T08:46:35;21.38;;;4.88;;
74473;SDS011;62922;-6.168;106.796;2022-12-13T08:49:01;17.90;;;4.82;;
74473;SDS011;62922;-6.168;106.796;2022-12-13T08:51:30;16.38;;;4.50;;
74473;SDS011;62922;-6.168;106.796;2022-12-13T08:53:56;17.70;;;4.78;;
74473;SDS011;62922;-6.168;106.796;2022-12-13T08:56:22;15.57;;;4.40;;
74473;SDS011;62922;-6.168;106.796;2022-12-13T08:58:51;16.55;;;4.70;;
74473;SDS011;62922;-6.168;106.796;2022-12-13T09:01:18;14.43;;;4.22;;
74473;SDS011;62922;-6.168;106.796;2022-12-13T09:03:44;14.80;;;4.55;;
74473;SDS011;62922;-6.168;106.796;2022-12-13T09:06:11;15.82;;;4.82;;
74473;SDS011;62922;-6.168;106.796;2022-12-13T09:08:39;13.73;;;4.63;;
74473;SDS011;62922;-6.168;106.796;2022-12-13T09:11:07;15.55;;;4.55;;
74473;SDS011;62922;-6.168;106.796;2022-12-13T09:13:37;17.42;;;4.65;;
74473;SDS011;62922;-6.168;106.796;2022-12-13T09:16:09;20.50;;;5.03;;
74473;SDS011;62922;-6.168;106.796;2022-12-13T09:18:38;22.35;;;5.13;;
74473;SDS011;62922;-6.168;106.796;2022-12-13T09:21:06;17.75;;;4.82;;
74473;SDS011;62922;-6.168;106.796;2022-12-13T09:23:34;15.23;;;4.32;;
74473;SDS011;62922;-6.168;106.796;2022-12-13T09:26:01;14.43;;;4.30;;
74473;SDS011;62922;-6.168;106.796;2022-12-13T09:28:28;17.38;;;5.10;;
74473;SDS011;62922;-6.168;106.796;2022-12-13T09:30:56;13.95;;;4.50;;
74473;SDS011;62922;-6.168;106.796;2022-12-13T09:33:25;23.75;;;5.13;;
74473;SDS011;62922;-6.168;106.796;2022-12-13T09:35:51;17.17;;;4.38;;
74473;SDS011;62922;-6.168;106.796;2022-12-13T09:38:18;18.50;;;5.20;;
74473;SDS011;62922;-6.168;106.796;2022-12-13T09:40:45;15.13;;;4.55;;
74473;SDS011;62922;-6.168;106.796;2022-12-13T09:43:23;14.55;;;4.95;;
74473;SDS011;62922;-6.168;106.796;2022-12-13T09:45:56;12.55;;;4.22;;
74473;SDS011;62922;-6.168;106.796;2022-12-13T09:48:23;16.73;;;4.53;;
74473;SDS011;62922;-6.168;106.796;2022-12-13T09:50:53;12.70;;;4.60;;
74473;SDS011;62922;-6.168;106.796;2022-12-13T09:53:19;14.55;;;4.50;;
74473;SDS011;62922;-6.168;106.796;2022-12-13T09:55:48;18.27;;;4.53;;
74473;SDS011;62922;-6.168;106.796;2022-12-13T09:58:19;20.77;;;5.13;;
74473;SDS011;62922;-6.168;106.796;2022-12-13T10:00:49;15.82;;;4.50;;
74473;SDS011;62922;-6.168;106.796;2022-12-13T10:03:18;15.75;;;4.68;;
74473;SDS011;62922;-6.168;106.796;2022-12-13T10:08:35;13.57;;;4.28;;
74473;SDS011;62922;-6.168;106.796;2022-12-13T10:11:06;18.52;;;4.40;;
74473;SDS011;62922;-6.168;106.796;2022-12-13T10:16:18;11.95;;;4.10;;
74473;SDS011;62922;-6.168;106.796;2022-12-13T10:18:47;12.23;;;4.13;;
74473;SDS011;62922;-6.168;106.796;2022-12-13T10:21:28;15.93;;;4.38;;
74473;SDS011;62922;-6.168;106.796;2022-12-13T10:26:38;14.98;;;4.90;;
74473;SDS011;62922;-6.168;106.796;2022-12-13T10:29:05;16.85;;;5.13;;
74473;SDS011;62922;-6.168;106.796;2022-12-13T10:39:13;15.13;;;5.18;;
74473;SDS011;62922;-6.168;106.796;2022-12-13T10:41:43;19.27;;;5.65;;
74473;SDS011;62922;-6.168;106.796;2022-12-13T10:46:38;15.05;;;5.40;;
74473;SDS011;62922;-6.168;106.796;2022-12-13T10:51:37;18.67;;;6.05;;
74473;SDS011;62922;-6.168;106.796;2022-12-13T10:54:04;19.02;;;6.57;;
74473;SDS011;62922;-6.168;106.796;2022-12-13T10:56:44;15.63;;;6.13;;
74473;SDS011;62922;-6.168;106.796;2022-12-13T11:01:42;16.90;;;6.55;;
74473;SDS011;62922;-6.168;106.796;2022-12-13T11:06:41;21.98;;;7.03;;
74473;SDS011;62922;-6.168;106.796;2022-12-13T11:11:59;20.55;;;7.40;;
74473;SDS011;62922;-6.168;106.796;2022-12-13T11:14:33;19.85;;;6.90;;
74473;SDS011;62922;-6.168;106.796;2022-12-13T11:22:04;18.65;;;6.80;;
74473;SDS011;62922;-6.168;106.796;2022-12-13T11:24:34;22.92;;;7.18;;
74473;SDS011;62922;-6.168;106.796;2022-12-13T11:27:19;23.08;;;7.10;;
74473;SDS011;62922;-6.168;106.796;2022-12-13T11:37:29;19.33;;;6.80;;
74473;SDS011;62922;-6.168;106.796;2022-12-13T11:40:04;22.35;;;7.10;;
74473;SDS011;62922;-6.168;106.796;2022-12-13T11:48:12;21.10;;;7.82;;
74473;SDS011;62922;-6.168;106.796;2022-12-13T11:50:27;21.60;;;7.78;;
74473;SDS011;62922;-6.168;106.796;2022-12-13T11:52:58;17.58;;;6.80;;
74473;SDS011;62922;-6.168;106.796;2022-12-13T11:55:36;19.83;;;6.78;;
74473;SDS011;62922;-6.168;106.796;2022-12-13T12:00:39;19.75;;;6.80;;
74473;SDS011;62922;-6.168;106.796;2022-12-13T12:05:46;23.67;;;7.15;;
74473;SDS011;62922;-6.168;106.796;2022-12-13T12:08:19;26.35;;;7.40;;
74473;SDS011;62922;-6.168;106.796;2022-12-13T12:13:38;18.50;;;6.28;;
74473;SDS011;62922;-6.168;106.796;2022-12-13T12:18:45;20.67;;;6.47;;
74473;SDS011;62922;-6.168;106.796;2022-12-13T12:23:52;20.92;;;6.80;;
74473;SDS011;62922;-6.168;106.796;2022-12-13T12:27:02;16.33;;;5.97;;
74473;SDS011;62922;-6.168;106.796;2022-12-13T12:34:58;17.52;;;5.90;;
74473;SDS011;62922;-6.168;106.796;2022-12-13T12:40:04;19.60;;;5.95;;
74473;SDS011;62922;-6.168;106.796;2022-12-13T12:42:38;20.55;;;5.95;;
74473;SDS011;62922;-6.168;106.796;2022-12-13T12:47:56;21.92;;;6.68;;
74473;SDS011;62922;-6.168;106.796;2022-12-13T12:53:05;16.40;;;5.63;;
74473;SDS011;62922;-6.168;106.796;2022-12-13T12:56:01;20.60;;;5.72;;
74473;SDS011;62922;-6.168;106.796;2022-12-13T12:58:44;17.85;;;5.57;;
74473;SDS011;62922;-6.168;106.796;2022-12-13T13:03:41;17.83;;;5.60;;
74473;SDS011;62922;-6.168;106.796;2022-12-13T13:06:11;14.68;;;5.43;;
74473;SDS011;62922;-6.168;106.796;2022-12-13T13:11:10;12.85;;;4.65;;
74473;SDS011;62922;-6.168;106.796;2022-12-13T13:18:44;14.52;;;4.85;;
74473;SDS011;62922;-6.168;106.796;2022-12-13T13:23:42;12.77;;;4.65;;
74473;SDS011;62922;-6.168;106.796;2022-12-13T13:26:08;12.25;;;4.38;;
74473;SDS011;62922;-6.168;106.796;2022-12-13T13:28:35;13.68;;;4.78;;
74473;SDS011;62922;-6.168;106.796;2022-12-13T13:36:07;25.10;;;6.20;;
74473;SDS011;62922;-6.168;106.796;2022-12-13T13:38:53;15.73;;;4.82;;
74473;SDS011;62922;-6.168;106.796;2022-12-13T13:43:51;22.40;;;5.93;;
74473;SDS011;62922;-6.168;106.796;2022-12-13T13:46:17;19.40;;;5.65;;
74473;SDS011;62922;-6.168;106.796;2022-12-13T13:56:43;22.30;;;5.85;;
74473;SDS011;62922;-6.168;106.796;2022-12-13T14:06:31;23.73;;;5.20;;
74473;SDS011;62922;-6.168;106.796;2022-12-13T14:09:10;24.40;;;6.10;;
74473;SDS011;62922;-6.168;106.796;2022-12-13T14:29:14;24.98;;;6.03;;
74473;SDS011;62922;-6.168;106.796;2022-12-13T14:31:43;20.33;;;4.97;;
74473;SDS011;62922;-6.168;106.796;2022-12-13T14:36:52;19.23;;;5.22;;
74473;SDS011;62922;-6.168;106.796;2022-12-13T14:39:29;21.33;;;5.05;;
74473;SDS011;62922;-6.168;106.796;2022-12-13T14:41:58;23.67;;;5.28;;
74473;SDS011;62922;-6.168;106.796;2022-12-13T14:44:27;21.63;;;4.82;;
74473;SDS011;62922;-6.168;106.796;2022-12-13T14:46:56;18.95;;;5.03;;
74473;SDS011;62922;-6.168;106.796;2022-12-13T14:49:26;26.67;;;5.70;;
74473;SDS011;62922;-6.168;106.796;2022-12-13T14:51:56;19.05;;;4.68;;
74473;SDS011;62922;-6.168;106.796;2022-12-13T14:57:15;20.98;;;5.18;;
74473;SDS011;62922;-6.168;106.796;2022-12-13T14:59:44;18.38;;;4.70;;
74473;SDS011;62922;-6.168;106.796;2022-12-13T15:02:14;17.30;;;5.22;;
74473;SDS011;62922;-6.168;106.796;2022-12-13T15:04:43;19.77;;;5.10;;
74473;SDS011;62922;-6.168;106.796;2022-12-13T15:09:41;18.08;;;5.57;;
74473;SDS011;62922;-6.168;106.796;2022-12-13T15:12:14;22.83;;;6.25;;
74473;SDS011;62922;-6.168;106.796;2022-12-13T15:14:42;18.80;;;5.50;;
74473;SDS011;62922;-6.168;106.796;2022-12-13T15:19:43;19.40;;;6.00;;
74473;SDS011;62922;-6.168;106.796;2022-12-13T15:22:13;20.05;;;6.20;;
74473;SDS011;62922;-6.168;106.796;2022-12-13T15:24:40;22.13;;;6.43;;
74473;SDS011;62922;-6.168;106.796;2022-12-13T15:27:20;20.10;;;6.35;;
74473;SDS011;62922;-6.168;106.796;2022-12-13T15:29:49;25.17;;;6.40;;
74473;SDS011;62922;-6.168;106.796;2022-12-13T15:32:17;22.55;;;5.75;;
74473;SDS011;62922;-6.168;106.796;2022-12-13T15:34:46;20.38;;;5.60;;
74473;SDS011;62922;-6.168;106.796;2022-12-13T15:37:19;20.67;;;6.10;;
74473;SDS011;62922;-6.168;106.796;2022-12-13T15:39:50;19.65;;;6.13;;
74473;SDS011;62922;-6.168;106.796;2022-12-13T15:44:56;19.25;;;6.10;;
74473;SDS011;62922;-6.168;106.796;2022-12-13T15:47:25;20.02;;;6.22;;
74473;SDS011;62922;-6.168;106.796;2022-12-13T15:49:54;24.23;;;6.25;;
74473;SDS011;62922;-6.168;106.796;2022-12-13T15:57:28;23.10;;;6.20;;
74473;SDS011;62922;-6.168;106.796;2022-12-13T16:00:06;19.13;;;6.13;;
74473;SDS011;62922;-6.168;106.796;2022-12-13T16:03:38;21.02;;;5.82;;
74473;SDS011;62922;-6.168;106.796;2022-12-13T16:05:39;25.45;;;6.32;;
74473;SDS011;62922;-6.168;106.796;2022-12-13T16:08:20;22.20;;;6.20;;
74473;SDS011;62922;-6.168;106.796;2022-12-13T16:10:51;17.55;;;4.72;;
74473;SDS011;62922;-6.168;106.796;2022-12-13T16:15:54;18.55;;;5.25;;
74473;SDS011;62922;-6.168;106.796;2022-12-13T16:18:29;26.38;;;6.28;;
74473;SDS011;62922;-6.168;106.796;2022-12-13T16:20:56;20.00;;;5.68;;
74473;SDS011;62922;-6.168;106.796;2022-12-13T16:23:24;18.45;;;5.47;;
74473;SDS011;62922;-6.168;106.796;2022-12-13T16:25:50;14.80;;;4.85;;
74473;SDS011;62922;-6.168;106.796;2022-12-13T16:28:17;17.67;;;4.85;;
74473;SDS011;62922;-6.168;106.796;2022-12-13T16:33:19;16.33;;;5.20;;
74473;SDS011;62922;-6.168;106.796;2022-12-13T16:35:47;18.50;;;5.15;;
74473;SDS011;62922;-6.168;106.796;2022-12-13T16:38:14;18.13;;;4.88;;
74473;SDS011;62922;-6.168;106.796;2022-12-13T16:40:41;20.25;;;5.10;;
74473;SDS011;62922;-6.168;106.796;2022-12-13T16:45:44;16.45;;;4.82;;
74473;SDS011;62922;-6.168;106.796;2022-12-13T16:48:14;17.45;;;4.68;;
74473;SDS011;62922;-6.168;106.796;2022-12-13T16:50:44;18.88;;;4.93;;
74473;SDS011;62922;-6.168;106.796;2022-12-13T16:53:12;18.77;;;4.82;;
74473;SDS011;62922;-6.168;106.796;2022-12-13T16:55:38;17.33;;;4.90;;
74473;SDS011;62922;-6.168;106.796;2022-12-13T16:58:06;18.55;;;4.60;;
74473;SDS011;62922;-6.168;106.796;2022-12-13T17:00:36;18.00;;;4.38;;
74473;SDS011;62922;-6.168;106.796;2022-12-13T17:03:05;19.13;;;5.22;;
74473;SDS011;62922;-6.168;106.796;2022-12-13T17:05:36;20.88;;;5.18;;
74473;SDS011;62922;-6.168;106.796;2022-12-13T17:08:02;19.52;;;4.35;;
74473;SDS011;62922;-6.168;106.796;2022-12-13T17:10:31;16.85;;;4.30;;
74473;SDS011;62922;-6.168;106.796;2022-12-13T17:12:57;19.75;;;4.43;;
74473;SDS011;62922;-6.168;106.796;2022-12-13T17:15:24;20.02;;;4.78;;